sensor_id;sensor_type;location;lat;lon;timestamp;pressure;altitude;pressure_sealevel;temperature;humidity
75996;BME280;64681;49.738;9.004;2023-02-28T00:00:21;100480.66;;;-1.83;66.93
75996;BME280;64681;49.738;9.004;2023-02-28T00:02:48;100481.59;;;-1.96;68.13
75996;BME280;64681;49.738;9.004;2023-02-28T00:05:17;100480.44;;;-1.82;66.99
75996;BME280;64681;49.738;9.004;2023-02-28T00:07:43;100484.00;;;-1.76;66.25
75996;BME280;64681;49.738;9.004;2023-02-28T00:10:12;100483.56;;;-1.92;67.22
75996;BME280;64681;49.738;9.004;2023-02-28T00:12:39;100478.63;;;-1.81;67.09
75996;BME280;64681;49.738;9.004;2023-02-28T00:15:10;100482.53;;;-1.91;67.01
75996;BME280;64681;49.738;9.004;2023-02-28T00:17:37;100489.59;;;-2.10;68.58
75996;BME280;64681;49.738;9.004;2023-02-28T00:20:04;100483.78;;;-2.12;68.63
75996;BME280;64681;49.738;9.004;2023-02-28T00:22:33;100484.13;;;-2.27;69.00
75996;BME280;64681;49.738;9.004;2023-02-28T00:24:58;100483.19;;;-2.32;69.59
75996;BME280;64681;49.738;9.004;2023-02-28T00:27:24;100488.31;;;-2.26;68.97
75996;BME280;64681;49.738;9.004;2023-02-28T00:29:49;100476.00;;;-2.18;68.57
75996;BME280;64681;49.738;9.004;2023-02-28T00:32:15;100482.72;;;-2.29;68.67
75996;BME280;64681;49.738;9.004;2023-02-28T00:34:40;100479.00;;;-2.40;69.90
75996;BME280;64681;49.738;9.004;2023-02-28T00:37:08;100480.56;;;-2.32;69.14
75996;BME280;64681;49.738;9.004;2023-02-28T00:39:36;100482.16;;;-2.31;68.76
75996;BME280;64681;49.738;9.004;2023-02-28T00:42:02;100486.84;;;-2.40;69.59
75996;BME280;64681;49.738;9.004;2023-02-28T00:44:28;100485.06;;;-2.21;68.88
75996;BME280;64681;49.738;9.004;2023-02-28T00:46:54;100480.19;;;-2.36;68.93
75996;BME280;64681;49.738;9.004;2023-02-28T00:49:20;100481.69;;;-2.47;69.67
75996;BME280;64681;49.738;9.004;2023-02-28T00:51:46;100483.81;;;-2.37;68.65
75996;BME280;64681;49.738;9.004;2023-02-28T00:54:12;100483.50;;;-2.47;70.33
75996;BME280;64681;49.738;9.004;2023-02-28T00:56:37;100480.03;;;-2.66;69.94
75996;BME280;64681;49.738;9.004;2023-02-28T00:59:03;100478.13;;;-2.52;69.36
75996;BME280;64681;49.738;9.004;2023-02-28T01:01:29;100482.94;;;-2.49;69.16
75996;BME280;64681;49.738;9.004;2023-02-28T01:03:54;100481.16;;;-2.56;69.60
75996;BME280;64681;49.738;9.004;2023-02-28T01:06:20;100486.47;;;-2.62;70.30
75996;BME280;64681;49.738;9.004;2023-02-28T01:08:45;100483.13;;;-2.51;69.31
75996;BME280;64681;49.738;9.004;2023-02-28T01:11:15;100484.13;;;-2.52;69.52
75996;BME280;64681;49.738;9.004;2023-02-28T01:13:42;100482.88;;;-2.68;69.87
75996;BME280;64681;49.738;9.004;2023-02-28T01:16:08;100463.88;;;-2.82;70.05
75996;BME280;64681;49.738;9.004;2023-02-28T01:18:33;100478.75;;;-2.82;70.82
75996;BME280;64681;49.738;9.004;2023-02-28T01:21:06;100481.47;;;-2.96;72.17
75996;BME280;64681;49.738;9.004;2023-02-28T01:23:33;100475.41;;;-2.90;71.31
75996;BME280;64681;49.738;9.004;2023-02-28T01:26:09;100475.41;;;-2.90;71.58
75996;BME280;64681;49.738;9.004;2023-02-28T01:28:36;100477.19;;;-2.90;71.49
75996;BME280;64681;49.738;9.004;2023-02-28T01:31:02;100463.59;;;-2.99;71.78
75996;BME280;64681;49.738;9.004;2023-02-28T01:33:28;100467.78;;;-2.91;70.57
75996;BME280;64681;49.738;9.004;2023-02-28T01:36:06;100471.03;;;-2.96;71.63
75996;BME280;64681;49.738;9.004;2023-02-28T01:38:33;100466.34;;;-2.87;70.49
75996;BME280;64681;49.738;9.004;2023-02-28T01:40:59;100472.78;;;-2.90;71.05
75996;BME280;64681;49.738;9.004;2023-02-28T01:43:28;100466.94;;;-2.85;70.67
75996;BME280;64681;49.738;9.004;2023-02-28T01:45:56;100467.72;;;-2.84;70.84
75996;BME280;64681;49.738;9.004;2023-02-28T01:48:29;100469.59;;;-2.92;71.65
75996;BME280;64681;49.738;9.004;2023-02-28T01:51:00;100463.13;;;-2.89;71.29
75996;BME280;64681;49.738;9.004;2023-02-28T01:53:37;100468.72;;;-2.86;70.58
75996;BME280;64681;49.738;9.004;2023-02-28T01:56:07;100467.47;;;-3.08;72.20
75996;BME280;64681;49.738;9.004;2023-02-28T01:58:35;100467.59;;;-3.28;73.46
75996;BME280;64681;49.738;9.004;2023-02-28T02:01:02;100463.84;;;-3.39;73.86
75996;BME280;64681;49.738;9.004;2023-02-28T02:03:29;100464.56;;;-3.25;73.04
75996;BME280;64681;49.738;9.004;2023-02-28T02:05:55;100452.72;;;-3.60;74.73
75996;BME280;64681;49.738;9.004;2023-02-28T02:08:26;100460.81;;;-3.36;72.97
75996;BME280;64681;49.738;9.004;2023-02-28T02:11:00;100451.16;;;-3.36;72.80
75996;BME280;64681;49.738;9.004;2023-02-28T02:16:36;100452.56;;;-3.33;72.81
75996;BME280;64681;49.738;9.004;2023-02-28T02:35:54;100440.47;;;-2.95;70.83
75996;BME280;64681;49.738;9.004;2023-02-28T02:38:36;100447.97;;;-3.06;70.58
75996;BME280;64681;49.738;9.004;2023-02-28T02:41:24;100434.41;;;-3.21;71.12
75996;BME280;64681;49.738;9.004;2023-02-28T02:44:02;100443.59;;;-3.12;71.65
75996;BME280;64681;49.738;9.004;2023-02-28T02:46:37;100443.38;;;-3.10;70.83
75996;BME280;64681;49.738;9.004;2023-02-28T02:49:09;100450.00;;;-3.08;71.64
75996;BME280;64681;49.738;9.004;2023-02-28T02:51:39;100450.88;;;-3.21;72.26
75996;BME280;64681;49.738;9.004;2023-02-28T02:54:24;100446.50;;;-3.27;71.82
75996;BME280;64681;49.738;9.004;2023-02-28T02:56:59;100444.91;;;-3.28;72.32
75996;BME280;64681;49.738;9.004;2023-02-28T02:59:28;100444.84;;;-3.21;72.86
75996;BME280;64681;49.738;9.004;2023-02-28T03:01:59;100450.13;;;-3.28;72.05
75996;BME280;64681;49.738;9.004;2023-02-28T03:04:32;100448.78;;;-3.37;73.44
75996;BME280;64681;49.738;9.004;2023-02-28T03:07:00;100450.78;;;-3.39;73.21
75996;BME280;64681;49.738;9.004;2023-02-28T03:09:26;100442.16;;;-3.40;73.51
75996;BME280;64681;49.738;9.004;2023-02-28T03:11:56;100447.94;;;-3.31;72.74
75996;BME280;64681;49.738;9.004;2023-02-28T03:20:01;100445.38;;;-3.38;72.83
75996;BME280;64681;49.738;9.004;2023-02-28T03:25:37;100441.88;;;-3.57;73.60
75996;BME280;64681;49.738;9.004;2023-02-28T03:31:03;100436.38;;;-3.48;73.46
75996;BME280;64681;49.738;9.004;2023-02-28T03:33:59;100436.00;;;-3.52;73.16
75996;BME280;64681;49.738;9.004;2023-02-28T03:36:30;100442.81;;;-3.51;73.16
75996;BME280;64681;49.738;9.004;2023-02-28T03:39:07;100437.88;;;-3.66;73.38
75996;BME280;64681;49.738;9.004;2023-02-28T03:41:51;100444.72;;;-3.65;73.36
75996;BME280;64681;49.738;9.004;2023-02-28T03:44:24;100442.03;;;-3.52;72.35
75996;BME280;64681;49.738;9.004;2023-02-28T03:47:04;100438.97;;;-3.48;71.95
75996;BME280;64681;49.738;9.004;2023-02-28T03:49:43;100442.63;;;-3.50;71.53
75996;BME280;64681;49.738;9.004;2023-02-28T03:52:11;100452.50;;;-3.58;72.03
75996;BME280;64681;49.738;9.004;2023-02-28T03:54:45;100443.91;;;-3.66;73.11
75996;BME280;64681;49.738;9.004;2023-02-28T03:57:33;100445.78;;;-3.79;73.79
75996;BME280;64681;49.738;9.004;2023-02-28T04:00:08;100440.31;;;-3.71;72.81
75996;BME280;64681;49.738;9.004;2023-02-28T04:02:36;100452.09;;;-3.62;72.68
75996;BME280;64681;49.738;9.004;2023-02-28T04:05:01;100449.56;;;-3.69;73.41
75996;BME280;64681;49.738;9.004;2023-02-28T04:07:31;100444.34;;;-3.75;73.11
75996;BME280;64681;49.738;9.004;2023-02-28T04:09:58;100438.91;;;-3.74;72.84
75996;BME280;64681;49.738;9.004;2023-02-28T04:12:24;100443.34;;;-3.74;72.61
75996;BME280;64681;49.738;9.004;2023-02-28T04:14:50;100450.34;;;-3.68;73.55
75996;BME280;64681;49.738;9.004;2023-02-28T04:17:16;100449.00;;;-3.84;74.24
75996;BME280;64681;49.738;9.004;2023-02-28T04:19:42;100446.13;;;-3.69;73.30
75996;BME280;64681;49.738;9.004;2023-02-28T04:22:08;100440.34;;;-3.78;73.08
75996;BME280;64681;49.738;9.004;2023-02-28T04:24:34;100449.13;;;-3.66;73.16
75996;BME280;64681;49.738;9.004;2023-02-28T04:27:00;100446.72;;;-3.67;72.43
75996;BME280;64681;49.738;9.004;2023-02-28T04:29:32;100445.13;;;-3.75;72.61
75996;BME280;64681;49.738;9.004;2023-02-28T04:31:59;100444.78;;;-3.85;73.37
75996;BME280;64681;49.738;9.004;2023-02-28T04:34:26;100446.81;;;-3.87;73.35
75996;BME280;64681;49.738;9.004;2023-02-28T04:36:53;100452.47;;;-3.97;74.45
75996;BME280;64681;49.738;9.004;2023-02-28T04:39:24;100447.19;;;-3.90;73.45
75996;BME280;64681;49.738;9.004;2023-02-28T04:41:50;100454.06;;;-3.96;73.51
75996;BME280;64681;49.738;9.004;2023-02-28T04:44:16;100457.47;;;-3.95;74.23
75996;BME280;64681;49.738;9.004;2023-02-28T04:46:43;100446.81;;;-3.87;73.70
75996;BME280;64681;49.738;9.004;2023-02-28T04:49:12;100450.47;;;-3.95;73.73
75996;BME280;64681;49.738;9.004;2023-02-28T04:51:38;100450.63;;;-3.97;73.73
75996;BME280;64681;49.738;9.004;2023-02-28T04:54:05;100450.31;;;-4.14;74.71
75996;BME280;64681;49.738;9.004;2023-02-28T04:56:31;100452.38;;;-4.42;75.99
75996;BME280;64681;49.738;9.004;2023-02-28T04:58:56;100449.72;;;-4.29;75.62
75996;BME280;64681;49.738;9.004;2023-02-28T05:01:26;100447.69;;;-4.14;74.88
75996;BME280;64681;49.738;9.004;2023-02-28T05:03:54;100456.28;;;-4.06;75.21
75996;BME280;64681;49.738;9.004;2023-02-28T05:06:22;100455.28;;;-4.05;74.46
75996;BME280;64681;49.738;9.004;2023-02-28T05:08:49;100457.31;;;-4.07;74.53
75996;BME280;64681;49.738;9.004;2023-02-28T05:11:36;100452.69;;;-4.05;73.77
75996;BME280;64681;49.738;9.004;2023-02-28T05:14:05;100453.47;;;-4.05;73.44
75996;BME280;64681;49.738;9.004;2023-02-28T05:16:32;100455.91;;;-4.17;73.71
75996;BME280;64681;49.738;9.004;2023-02-28T05:18:57;100458.13;;;-4.07;73.60
75996;BME280;64681;49.738;9.004;2023-02-28T05:21:34;100458.13;;;-4.20;75.15
75996;BME280;64681;49.738;9.004;2023-02-28T05:24:04;100454.75;;;-4.27;75.22
75996;BME280;64681;49.738;9.004;2023-02-28T05:26:33;100461.50;;;-4.06;73.99
75996;BME280;64681;49.738;9.004;2023-02-28T05:28:59;100460.56;;;-4.25;75.20
75996;BME280;64681;49.738;9.004;2023-02-28T05:31:24;100464.16;;;-4.20;74.90
75996;BME280;64681;49.738;9.004;2023-02-28T05:33:50;100460.69;;;-4.00;73.50
75996;BME280;64681;49.738;9.004;2023-02-28T05:36:16;100462.91;;;-4.04;73.63
75996;BME280;64681;49.738;9.004;2023-02-28T05:38:42;100470.34;;;-4.07;74.18
75996;BME280;64681;49.738;9.004;2023-02-28T05:41:09;100466.72;;;-4.13;74.23
75996;BME280;64681;49.738;9.004;2023-02-28T05:43:35;100470.38;;;-4.27;75.03
75996;BME280;64681;49.738;9.004;2023-02-28T05:46:07;100479.16;;;-4.08;74.77
75996;BME280;64681;49.738;9.004;2023-02-28T05:48:35;100475.78;;;-4.09;73.97
75996;BME280;64681;49.738;9.004;2023-02-28T05:51:02;100476.38;;;-4.14;74.18
75996;BME280;64681;49.738;9.004;2023-02-28T05:53:28;100473.41;;;-4.37;75.14
75996;BME280;64681;49.738;9.004;2023-02-28T05:55:54;100482.63;;;-4.28;75.27
75996;BME280;64681;49.738;9.004;2023-02-28T05:58:20;100479.94;;;-3.94;73.64
75996;BME280;64681;49.738;9.004;2023-02-28T06:00:46;100478.94;;;-4.00;74.77
75996;BME280;64681;49.738;9.004;2023-02-28T06:03:12;100474.94;;;-4.09;74.70
75996;BME280;64681;49.738;9.004;2023-02-28T06:05:37;100475.63;;;-4.34;76.23
75996;BME280;64681;49.738;9.004;2023-02-28T06:08:03;100475.63;;;-4.34;76.06
75996;BME280;64681;49.738;9.004;2023-02-28T06:10:31;100483.44;;;-4.34;76.22
75996;BME280;64681;49.738;9.004;2023-02-28T06:12:59;100482.19;;;-4.11;74.51
75996;BME280;64681;49.738;9.004;2023-02-28T06:15:26;100488.81;;;-4.16;75.32
75996;BME280;64681;49.738;9.004;2023-02-28T06:17:52;100486.81;;;-4.20;74.50
75996;BME280;64681;49.738;9.004;2023-02-28T06:20:17;100485.41;;;-4.23;74.75
75996;BME280;64681;49.738;9.004;2023-02-28T06:22:43;100490.41;;;-4.15;75.07
75996;BME280;64681;49.738;9.004;2023-02-28T06:25:10;100490.81;;;-4.04;74.50
75996;BME280;64681;49.738;9.004;2023-02-28T06:27:36;100491.00;;;-4.06;74.48
75996;BME280;64681;49.738;9.004;2023-02-28T06:30:01;100490.19;;;-4.00;74.60
75996;BME280;64681;49.738;9.004;2023-02-28T06:32:27;100485.22;;;-4.28;75.08
75996;BME280;64681;49.738;9.004;2023-02-28T06:34:53;100494.63;;;-4.14;75.93
75996;BME280;64681;49.738;9.004;2023-02-28T06:37:18;100493.00;;;-3.94;74.57
75996;BME280;64681;49.738;9.004;2023-02-28T06:39:44;100484.72;;;-3.85;74.82
75996;BME280;64681;49.738;9.004;2023-02-28T06:42:09;100490.53;;;-3.83;74.49
75996;BME280;64681;49.738;9.004;2023-02-28T06:44:35;100497.41;;;-3.95;74.83
75996;BME280;64681;49.738;9.004;2023-02-28T06:47:05;100493.38;;;-3.91;74.52
75996;BME280;64681;49.738;9.004;2023-02-28T06:49:33;100496.13;;;-3.72;73.91
75996;BME280;64681;49.738;9.004;2023-02-28T06:51:59;100507.19;;;-3.84;74.84
75996;BME280;64681;49.738;9.004;2023-02-28T06:54:25;100500.81;;;-3.88;75.51
75996;BME280;64681;49.738;9.004;2023-02-28T06:56:50;100509.75;;;-3.57;73.40
75996;BME280;64681;49.738;9.004;2023-02-28T06:59:16;100504.03;;;-3.40;73.32
75996;BME280;64681;49.738;9.004;2023-02-28T07:01:42;100515.53;;;-3.55;73.39
75996;BME280;64681;49.738;9.004;2023-02-28T07:04:08;100511.09;;;-3.47;73.77
75996;BME280;64681;49.738;9.004;2023-02-28T07:06:33;100504.78;;;-3.33;73.42
75996;BME280;64681;49.738;9.004;2023-02-28T07:08:59;100515.56;;;-3.16;72.51
75996;BME280;64681;49.738;9.004;2023-02-28T07:11:26;100510.19;;;-3.28;73.44
75996;BME280;64681;49.738;9.004;2023-02-28T07:13:56;100505.75;;;-3.21;73.52
75996;BME280;64681;49.738;9.004;2023-02-28T07:16:23;100504.88;;;-3.08;72.44
75996;BME280;64681;49.738;9.004;2023-02-28T07:18:48;100510.34;;;-3.16;72.56
75996;BME280;64681;49.738;9.004;2023-02-28T07:21:14;100516.50;;;-3.04;72.68
75996;BME280;64681;49.738;9.004;2023-02-28T07:23:40;100517.31;;;-3.03;72.57
75996;BME280;64681;49.738;9.004;2023-02-28T07:26:12;100517.59;;;-2.86;71.82
75996;BME280;64681;49.738;9.004;2023-02-28T07:28:41;100517.59;;;-2.61;69.96
75996;BME280;64681;49.738;9.004;2023-02-28T07:31:09;100523.63;;;-2.60;70.71
75996;BME280;64681;49.738;9.004;2023-02-28T07:33:35;100520.56;;;-2.50;70.18
75996;BME280;64681;49.738;9.004;2023-02-28T07:36:06;100516.75;;;-2.80;71.69
75996;BME280;64681;49.738;9.004;2023-02-28T07:38:37;100525.78;;;-2.50;70.84
75996;BME280;64681;49.738;9.004;2023-02-28T07:41:03;100528.81;;;-2.28;70.77
75996;BME280;64681;49.738;9.004;2023-02-28T07:43:33;100525.84;;;-2.89;72.25
75996;BME280;64681;49.738;9.004;2023-02-28T07:46:08;100519.25;;;-2.98;72.59
75996;BME280;64681;49.738;9.004;2023-02-28T07:48:34;100521.69;;;-2.65;72.21
75996;BME280;64681;49.738;9.004;2023-02-28T07:51:00;100520.09;;;-2.47;71.30
75996;BME280;64681;49.738;9.004;2023-02-28T07:53:27;100525.41;;;-2.29;71.19
75996;BME280;64681;49.738;9.004;2023-02-28T07:55:57;100515.25;;;-2.00;70.75
75996;BME280;64681;49.738;9.004;2023-02-28T07:58:23;100524.19;;;-1.52;69.66
75996;BME280;64681;49.738;9.004;2023-02-28T08:00:50;100523.47;;;-0.56;67.28
75996;BME280;64681;49.738;9.004;2023-02-28T08:03:17;100515.63;;;-0.08;65.00
75996;BME280;64681;49.738;9.004;2023-02-28T08:05:43;100515.75;;;1.24;62.52
75996;BME280;64681;49.738;9.004;2023-02-28T08:08:08;100514.19;;;2.19;58.96
75996;BME280;64681;49.738;9.004;2023-02-28T08:10:34;100511.34;;;2.48;57.56
75996;BME280;64681;49.738;9.004;2023-02-28T08:13:00;100519.59;;;2.29;57.07
75996;BME280;64681;49.738;9.004;2023-02-28T08:15:26;100503.88;;;2.40;56.04
75996;BME280;64681;49.738;9.004;2023-02-28T08:17:52;100514.78;;;1.14;57.26
75996;BME280;64681;49.738;9.004;2023-02-28T08:20:18;100508.41;;;0.52;58.63
75996;BME280;64681;49.738;9.004;2023-02-28T08:22:43;100511.41;;;0.72;58.57
75996;BME280;64681;49.738;9.004;2023-02-28T08:25:09;100516.31;;;0.52;58.43
75996;BME280;64681;49.738;9.004;2023-02-28T08:27:35;100510.22;;;1.43;56.92
75996;BME280;64681;49.738;9.004;2023-02-28T08:30:02;100512.72;;;0.58;57.07
75996;BME280;64681;49.738;9.004;2023-02-28T08:32:28;100505.53;;;1.28;58.04
75996;BME280;64681;49.738;9.004;2023-02-28T08:34:53;100504.38;;;1.75;54.63
75996;BME280;64681;49.738;9.004;2023-02-28T08:37:19;100505.47;;;2.18;54.50
75996;BME280;64681;49.738;9.004;2023-02-28T08:39:45;100509.81;;;1.51;56.07
75996;BME280;64681;49.738;9.004;2023-02-28T08:42:11;100520.00;;;1.82;54.05
75996;BME280;64681;49.738;9.004;2023-02-28T08:44:36;100500.84;;;1.30;54.73
75996;BME280;64681;49.738;9.004;2023-02-28T08:47:02;100511.56;;;1.12;54.90
75996;BME280;64681;49.738;9.004;2023-02-28T08:49:27;100510.13;;;1.55;55.01
75996;BME280;64681;49.738;9.004;2023-02-28T08:51:54;100500.75;;;1.59;54.46
75996;BME280;64681;49.738;9.004;2023-02-28T08:54:20;100504.97;;;1.26;54.46
75996;BME280;64681;49.738;9.004;2023-02-28T08:56:46;100513.91;;;1.59;54.52
75996;BME280;64681;49.738;9.004;2023-02-28T08:59:13;100511.66;;;2.07;52.47
75996;BME280;64681;49.738;9.004;2023-02-28T09:01:38;100518.66;;;1.62;52.93
75996;BME280;64681;49.738;9.004;2023-02-28T09:04:04;100512.91;;;0.97;54.58
75996;BME280;64681;49.738;9.004;2023-02-28T09:06:32;100503.06;;;0.75;55.03
75996;BME280;64681;49.738;9.004;2023-02-28T09:08:58;100513.22;;;0.84;55.33
75996;BME280;64681;49.738;9.004;2023-02-28T09:11:25;100496.69;;;0.88;54.69
75996;BME280;64681;49.738;9.004;2023-02-28T09:13:50;100512.72;;;0.58;56.64
75996;BME280;64681;49.738;9.004;2023-02-28T09:16:17;100497.09;;;0.51;55.45
75996;BME280;64681;49.738;9.004;2023-02-28T09:18:43;100510.91;;;0.87;54.75
75996;BME280;64681;49.738;9.004;2023-02-28T09:21:12;100505.78;;;0.81;54.38
75996;BME280;64681;49.738;9.004;2023-02-28T09:23:41;100501.88;;;0.83;55.18
75996;BME280;64681;49.738;9.004;2023-02-28T09:26:07;100502.88;;;1.45;54.38
75996;BME280;64681;49.738;9.004;2023-02-28T09:28:33;100504.72;;;1.62;53.17
75996;BME280;64681;49.738;9.004;2023-02-28T09:30:59;100503.19;;;1.66;52.09
75996;BME280;64681;49.738;9.004;2023-02-28T09:33:25;100514.28;;;1.17;53.60
75996;BME280;64681;49.738;9.004;2023-02-28T09:35:58;100503.53;;;1.18;53.11
75996;BME280;64681;49.738;9.004;2023-02-28T09:38:24;100502.00;;;1.22;53.65
75996;BME280;64681;49.738;9.004;2023-02-28T09:40:58;100494.66;;;1.58;52.75
75996;BME280;64681;49.738;9.004;2023-02-28T09:43:35;100502.81;;;1.23;52.69
75996;BME280;64681;49.738;9.004;2023-02-28T09:46:32;100505.97;;;1.76;51.55
75996;BME280;64681;49.738;9.004;2023-02-28T09:49:22;100507.97;;;1.69;51.73
75996;BME280;64681;49.738;9.004;2023-02-28T09:54:22;100512.13;;;1.48;52.17
75996;BME280;64681;49.738;9.004;2023-02-28T09:57:25;100514.19;;;1.80;51.49
75996;BME280;64681;49.738;9.004;2023-02-28T10:02:56;100509.81;;;1.68;51.31
75996;BME280;64681;49.738;9.004;2023-02-28T10:05:31;100519.31;;;1.52;51.63
75996;BME280;64681;49.738;9.004;2023-02-28T10:10:50;100509.97;;;1.62;51.16
75996;BME280;64681;49.738;9.004;2023-02-28T10:13:34;100508.09;;;1.96;50.60
75996;BME280;64681;49.738;9.004;2023-02-28T10:16:08;100506.53;;;1.78;51.98
75996;BME280;64681;49.738;9.004;2023-02-28T10:18:47;100510.88;;;1.16;52.61
75996;BME280;64681;49.738;9.004;2023-02-28T10:21:29;100507.28;;;1.56;52.28
75996;BME280;64681;49.738;9.004;2023-02-28T10:24:03;100506.44;;;1.73;51.26
75996;BME280;64681;49.738;9.004;2023-02-28T10:26:32;100515.63;;;2.10;51.67
75996;BME280;64681;49.738;9.004;2023-02-28T10:28:58;100508.34;;;1.78;50.92
75996;BME280;64681;49.738;9.004;2023-02-28T10:31:24;100501.13;;;2.07;50.01
75996;BME280;64681;49.738;9.004;2023-02-28T10:33:50;100510.94;;;1.72;51.48
75996;BME280;64681;49.738;9.004;2023-02-28T10:36:19;100517.47;;;1.70;51.41
75996;BME280;64681;49.738;9.004;2023-02-28T10:38:46;100515.63;;;1.70;51.39
75996;BME280;64681;49.738;9.004;2023-02-28T10:41:27;100508.63;;;1.59;52.68
75996;BME280;64681;49.738;9.004;2023-02-28T10:44:18;100506.16;;;2.31;50.08
75996;BME280;64681;49.738;9.004;2023-02-28T10:46:45;100499.34;;;2.13;50.40
75996;BME280;64681;49.738;9.004;2023-02-28T10:49:17;100493.09;;;2.41;50.12
75996;BME280;64681;49.738;9.004;2023-02-28T10:51:45;100503.00;;;2.34;50.17
75996;BME280;64681;49.738;9.004;2023-02-28T10:54:32;100504.41;;;2.64;49.96
75996;BME280;64681;49.738;9.004;2023-02-28T10:57:15;100498.06;;;2.92;50.51
75996;BME280;64681;49.738;9.004;2023-02-28T10:59:41;100504.22;;;3.03;49.02
75996;BME280;64681;49.738;9.004;2023-02-28T11:02:35;100490.75;;;2.72;50.43
75996;BME280;64681;49.738;9.004;2023-02-28T11:05:32;100504.13;;;2.16;50.64
75996;BME280;64681;49.738;9.004;2023-02-28T11:08:12;100500.16;;;1.74;51.64
75996;BME280;64681;49.738;9.004;2023-02-28T11:10:39;100508.53;;;1.54;51.95
75996;BME280;64681;49.738;9.004;2023-02-28T11:13:17;100512.44;;;2.08;50.55
75996;BME280;64681;49.738;9.004;2023-02-28T11:15:54;100499.47;;;2.01;50.89
75996;BME280;64681;49.738;9.004;2023-02-28T11:18:55;100495.53;;;2.03;50.57
75996;BME280;64681;49.738;9.004;2023-02-28T11:24:03;100502.47;;;1.70;51.39
75996;BME280;64681;49.738;9.004;2023-02-28T11:26:41;100496.13;;;2.55;49.86
75996;BME280;64681;49.738;9.004;2023-02-28T11:29:24;100495.44;;;2.65;49.64
75996;BME280;64681;49.738;9.004;2023-02-28T11:34:31;100486.72;;;3.24;49.22
75996;BME280;64681;49.738;9.004;2023-02-28T11:36:58;100484.31;;;2.13;50.50
75996;BME280;64681;49.738;9.004;2023-02-28T11:39:26;100492.53;;;2.17;50.86
75996;BME280;64681;49.738;9.004;2023-02-28T11:48:22;100497.72;;;2.56;49.99
75996;BME280;64681;49.738;9.004;2023-02-28T11:50:52;100498.06;;;2.15;50.62
75996;BME280;64681;49.738;9.004;2023-02-28T11:56:52;100501.25;;;2.17;51.03
75996;BME280;64681;49.738;9.004;2023-02-28T12:04:46;100483.84;;;3.69;47.34
75996;BME280;64681;49.738;9.004;2023-02-28T12:07:45;100477.19;;;4.04;47.04
75996;BME280;64681;49.738;9.004;2023-02-28T12:10:20;100482.78;;;3.27;48.07
75996;BME280;64681;49.738;9.004;2023-02-28T12:18:22;100479.84;;;4.09;46.40
75996;BME280;64681;49.738;9.004;2023-02-28T12:21:14;100471.53;;;4.58;45.64
75996;BME280;64681;49.738;9.004;2023-02-28T12:24:07;100467.84;;;4.59;44.59
75996;BME280;64681;49.738;9.004;2023-02-28T12:26:48;100469.38;;;4.45;44.81
75996;BME280;64681;49.738;9.004;2023-02-28T12:29:36;100469.38;;;4.35;45.64
75996;BME280;64681;49.738;9.004;2023-02-28T12:32:11;100462.47;;;4.34;45.85
75996;BME280;64681;49.738;9.004;2023-02-28T12:34:44;100469.97;;;3.89;47.02
75996;BME280;64681;49.738;9.004;2023-02-28T12:37:17;100462.25;;;4.46;45.06
75996;BME280;64681;49.738;9.004;2023-02-28T12:39:51;100476.41;;;4.08;45.75
75996;BME280;64681;49.738;9.004;2023-02-28T12:42:30;100458.34;;;3.90;46.57
75996;BME280;64681;49.738;9.004;2023-02-28T12:48:10;100474.97;;;3.42;47.15
75996;BME280;64681;49.738;9.004;2023-02-28T12:50:40;100455.25;;;3.50;47.38
75996;BME280;64681;49.738;9.004;2023-02-28T12:53:06;100473.78;;;3.23;48.55
75996;BME280;64681;49.738;9.004;2023-02-28T13:01:10;100463.13;;;3.07;47.94
75996;BME280;64681;49.738;9.004;2023-02-28T13:09:17;100469.75;;;2.82;48.83
75996;BME280;64681;49.738;9.004;2023-02-28T13:11:50;100459.72;;;2.79;49.64
75996;BME280;64681;49.738;9.004;2023-02-28T13:17:14;100464.41;;;3.37;48.52
75996;BME280;64681;49.738;9.004;2023-02-28T13:24:53;100461.69;;;2.94;49.36
75996;BME280;64681;49.738;9.004;2023-02-28T13:27:32;100465.22;;;3.05;50.00
75996;BME280;64681;49.738;9.004;2023-02-28T13:29:59;100455.22;;;3.07;49.93
75996;BME280;64681;49.738;9.004;2023-02-28T13:47:51;100454.47;;;3.55;48.76
75996;BME280;64681;49.738;9.004;2023-02-28T13:50:39;100441.66;;;3.79;48.90
75996;BME280;64681;49.738;9.004;2023-02-28T14:06:54;100432.69;;;3.85;47.82
75996;BME280;64681;49.738;9.004;2023-02-28T14:09:27;100434.94;;;3.56;48.66
75996;BME280;64681;49.738;9.004;2023-02-28T14:11:54;100430.38;;;3.99;47.26
75996;BME280;64681;49.738;9.004;2023-02-28T14:17:14;100424.75;;;3.80;47.55
75996;BME280;64681;49.738;9.004;2023-02-28T14:19:45;100420.50;;;3.74;48.02
75996;BME280;64681;49.738;9.004;2023-02-28T14:38:25;100418.16;;;3.88;48.68
75996;BME280;64681;49.738;9.004;2023-02-28T14:40:56;100408.81;;;4.38;47.07
75996;BME280;64681;49.738;9.004;2023-02-28T14:43:28;100413.28;;;4.27;47.85
75996;BME280;64681;49.738;9.004;2023-02-28T14:45:57;100415.44;;;4.62;46.58
75996;BME280;64681;49.738;9.004;2023-02-28T14:48:24;100419.97;;;4.77;45.73
75996;BME280;64681;49.738;9.004;2023-02-28T14:50:54;100423.13;;;4.53;46.44
75996;BME280;64681;49.738;9.004;2023-02-28T14:53:23;100429.16;;;4.33;47.14
75996;BME280;64681;49.738;9.004;2023-02-28T14:55:50;100420.59;;;3.94;47.35
75996;BME280;64681;49.738;9.004;2023-02-28T14:58:29;100413.28;;;4.27;47.04
75996;BME280;64681;49.738;9.004;2023-02-28T15:01:01;100413.88;;;4.50;46.59
75996;BME280;64681;49.738;9.004;2023-02-28T15:03:36;100406.47;;;4.63;46.82
75996;BME280;64681;49.738;9.004;2023-02-28T15:06:12;100409.53;;;4.03;47.00
75996;BME280;64681;49.738;9.004;2023-02-28T15:08:38;100408.56;;;3.61;48.09
75996;BME280;64681;49.738;9.004;2023-02-28T15:11:17;100402.41;;;4.08;46.84
75996;BME280;64681;49.738;9.004;2023-02-28T15:13:54;100405.00;;;3.98;47.85
75996;BME280;64681;49.738;9.004;2023-02-28T15:16:32;100399.91;;;3.76;47.84
75996;BME280;64681;49.738;9.004;2023-02-28T15:19:05;100403.97;;;3.99;47.41
75996;BME280;64681;49.738;9.004;2023-02-28T15:21:39;100401.44;;;4.56;46.32
75996;BME280;64681;49.738;9.004;2023-02-28T15:24:56;100398.78;;;4.82;46.07
75996;BME280;64681;49.738;9.004;2023-02-28T15:27:06;100400.88;;;4.43;46.12